createdAt,value
2022-11-23T00:00:45.176Z,7.43
2022-11-23T00:03:15.909Z,7.32
2022-11-23T00:05:43.521Z,7.53
2022-11-23T00:08:10.879Z,6.57
2022-11-23T00:10:38.252Z,6.90
2022-11-23T00:13:05.637Z,6.75
2022-11-23T00:15:32.983Z,6.88
2022-11-23T00:18:00.666Z,6.80
2022-11-23T00:25:01.249Z,6.65
2022-11-23T00:27:28.773Z,6.28
2022-11-23T00:29:56.179Z,5.03
2022-11-23T00:32:23.660Z,5.78
2022-11-23T00:34:51.059Z,4.43
2022-11-23T00:37:18.535Z,6.47
2022-11-23T00:39:45.864Z,5.03
2022-11-23T00:42:13.424Z,5.65
2022-11-23T00:44:40.837Z,5.13
2022-11-23T00:47:08.239Z,5.45
2022-11-23T00:49:35.588Z,11.98
2022-11-23T00:52:03.036Z,4.95
2022-11-23T00:54:30.472Z,4.75
2022-11-23T00:56:57.963Z,4.72
2022-11-23T00:59:25.348Z,4.50
2022-11-23T01:01:52.793Z,4.30
2022-11-23T01:04:20.275Z,3.88
2022-11-23T01:06:47.992Z,3.80
2022-11-23T01:09:18.711Z,3.53
2022-11-23T01:11:46.257Z,4.05
2022-11-23T01:14:13.639Z,3.50
2022-11-23T01:16:41.806Z,4.80
2022-11-23T01:19:12.456Z,3.78
2022-11-23T01:21:40.234Z,3.13
2022-11-23T01:24:10.367Z,3.60
2022-11-23T01:26:37.910Z,3.38
2022-11-23T01:29:05.465Z,3.80
2022-11-23T01:31:33.094Z,3.55
2022-11-23T01:34:02.080Z,2.85
2022-11-23T01:36:33.338Z,4.00
2022-11-23T01:41:35.358Z,3.05
2022-11-23T01:44:23.213Z,3.10
2022-11-23T01:46:51.659Z,2.97
2022-11-23T01:49:20.406Z,2.80
2022-11-23T01:51:50.926Z,3.55
2022-11-23T01:54:39.683Z,2.83
2022-11-23T01:57:12.106Z,2.83
2022-11-23T01:59:40.018Z,2.20
2022-11-23T02:02:07.621Z,2.50
2022-11-23T02:04:39.289Z,2.83
2022-11-23T02:07:07.016Z,2.60
2022-11-23T02:09:35.961Z,2.55
2022-11-23T02:12:03.726Z,2.45
2022-11-23T02:14:31.199Z,2.75
2022-11-23T02:16:59.657Z,2.78
2022-11-23T02:19:41.393Z,2.50
2022-11-23T02:22:16.045Z,2.58
2022-11-23T02:24:49.896Z,2.83
2022-11-23T02:27:17.760Z,2.92
2022-11-23T02:29:46.431Z,4.13
2022-11-23T02:32:20.777Z,2.92
2022-11-23T02:34:48.135Z,2.67
2022-11-23T02:37:16.843Z,2.90
2022-11-23T02:39:50.338Z,3.08
2022-11-23T02:42:18.660Z,3.17
2022-11-23T02:44:49.011Z,3.22
2022-11-23T02:47:16.791Z,2.93
2022-11-23T02:49:47.208Z,2.72
2022-11-23T02:52:16.025Z,2.75
2022-11-23T02:54:43.516Z,2.50
2022-11-23T02:57:11.197Z,3.17
2022-11-23T02:59:38.519Z,2.72
2022-11-23T03:02:06.207Z,3.95
2022-11-23T03:04:33.880Z,2.72
2022-11-23T03:07:01.377Z,2.67
2022-11-23T03:09:29.739Z,2.90
2022-11-23T03:11:57.594Z,2.75
2022-11-23T03:14:25.833Z,3.35
2022-11-23T03:16:53.297Z,2.63
2022-11-23T03:19:20.677Z,2.20
2022-11-23T03:21:48.082Z,2.42
2022-11-23T03:24:16.310Z,3.15
2022-11-23T03:26:43.749Z,2.80
2022-11-23T03:29:11.139Z,2.60
2022-11-23T03:31:38.581Z,3.00
2022-11-23T03:34:06.053Z,2.88
2022-11-23T03:36:33.441Z,3.08
2022-11-23T03:39:00.844Z,2.72
2022-11-23T03:41:28.267Z,2.40
2022-11-23T03:43:55.683Z,2.60
2022-11-23T03:46:23.127Z,2.80
2022-11-23T03:48:50.497Z,2.90
2022-11-23T03:51:18.026Z,3.20
2022-11-23T03:53:45.464Z,2.92
2022-11-23T03:56:12.939Z,3.20
2022-11-23T03:58:40.599Z,3.63
2022-11-23T04:01:08.234Z,3.65
2022-11-23T04:03:35.717Z,3.85
2022-11-23T04:06:03.417Z,3.75
2022-11-23T04:08:31.092Z,3.78
2022-11-23T04:11:00.716Z,3.72
2022-11-23T04:13:29.874Z,4.13
2022-11-23T04:15:58.434Z,3.80
2022-11-23T04:18:26.301Z,3.90
2022-11-23T04:20:53.821Z,4.13
2022-11-23T04:23:21.215Z,3.72
2022-11-23T04:25:48.671Z,3.83
2022-11-23T04:28:16.189Z,5.32
2022-11-23T04:30:43.604Z,3.80
2022-11-23T04:33:11.003Z,4.22
2022-11-23T04:35:38.425Z,3.58
2022-11-23T04:38:05.865Z,3.78
2022-11-23T04:40:33.281Z,3.58
2022-11-23T04:43:02.196Z,4.07
2022-11-23T04:45:29.752Z,4.25
2022-11-23T04:47:57.119Z,2.90
2022-11-23T04:50:24.560Z,4.68
2022-11-23T04:52:51.939Z,2.28
2022-11-23T04:55:19.362Z,2.53
2022-11-23T04:57:46.698Z,2.45
2022-11-23T05:00:14.788Z,2.85
2022-11-23T05:02:42.169Z,2.15
2022-11-23T05:05:10.103Z,1.58
2022-11-23T05:07:37.638Z,1.95
2022-11-23T05:10:05.485Z,2.42
2022-11-23T05:12:32.895Z,1.98
2022-11-23T05:15:00.362Z,1.83
2022-11-23T05:17:27.836Z,2.70
2022-11-23T05:19:56.209Z,2.28
2022-11-23T05:22:23.580Z,2.50
2022-11-23T05:24:51.339Z,2.13
2022-11-23T05:27:18.861Z,2.15
2022-11-23T05:29:46.240Z,2.30
2022-11-23T05:32:15.023Z,1.90
2022-11-23T05:34:42.457Z,1.98
2022-11-23T05:37:09.943Z,2.15
2022-11-23T05:39:37.345Z,2.38
2022-11-23T05:42:04.978Z,2.83
2022-11-23T05:44:32.556Z,2.63
2022-11-23T05:47:00.156Z,2.38
2022-11-23T05:49:27.717Z,1.70
2022-11-23T05:51:55.165Z,3.00
2022-11-23T05:54:22.760Z,2.17
2022-11-23T05:56:50.209Z,2.55
2022-11-23T05:59:17.622Z,2.03
2022-11-23T06:01:45.036Z,1.98
2022-11-23T06:04:13.410Z,2.03
2022-11-23T06:06:40.903Z,2.17
2022-11-23T06:09:08.358Z,1.90
2022-11-23T06:11:36.064Z,2.30
2022-11-23T06:14:04.146Z,2.53
2022-11-23T06:16:32.312Z,2.30
2022-11-23T06:18:59.707Z,1.90
2022-11-23T06:21:27.129Z,2.22
2022-11-23T06:23:54.499Z,2.00
2022-11-23T06:26:22.021Z,1.73
2022-11-23T06:28:49.424Z,2.85
2022-11-23T06:31:16.830Z,2.00
2022-11-23T06:33:44.760Z,1.80
2022-11-23T06:36:12.640Z,1.90
2022-11-23T06:38:40.009Z,3.00
2022-11-23T06:41:07.475Z,2.03
2022-11-23T06:43:34.928Z,1.65
2022-11-23T06:46:06.958Z,1.48
2022-11-23T06:48:34.455Z,1.88
2022-11-23T06:51:02.066Z,1.45
2022-11-23T06:53:30.087Z,1.83
2022-11-23T06:56:00.807Z,1.65
2022-11-23T06:58:28.365Z,3.28
2022-11-23T07:01:00.947Z,1.77
2022-11-23T07:03:28.627Z,2.08
2022-11-23T07:05:56.572Z,2.00
2022-11-23T07:08:24.004Z,2.03
2022-11-23T07:10:51.374Z,1.73
2022-11-23T07:13:18.785Z,2.08
2022-11-23T07:15:46.151Z,1.83
2022-11-23T07:18:13.513Z,1.13
2022-11-23T07:20:40.883Z,2.28
2022-11-23T07:23:10.739Z,1.77
2022-11-23T07:25:38.742Z,2.00
2022-11-23T07:28:07.604Z,1.73
2022-11-23T07:30:35.868Z,1.40
2022-11-23T07:33:05.770Z,1.63
2022-11-23T07:35:33.200Z,1.10
2022-11-23T07:38:00.944Z,2.00
2022-11-23T07:40:29.485Z,1.38
2022-11-23T07:43:01.694Z,2.53
2022-11-23T07:45:29.955Z,1.42
2022-11-23T07:48:08.089Z,1.40
2022-11-23T07:50:36.864Z,1.73
2022-11-23T07:53:06.124Z,2.22
2022-11-23T07:55:33.963Z,1.30
2022-11-23T07:58:01.585Z,1.30
2022-11-23T08:00:30.199Z,1.20
2022-11-23T08:03:26.104Z,1.50
2022-11-23T08:05:47.312Z,1.33
2022-11-23T08:08:14.935Z,1.30
2022-11-23T08:10:47.145Z,1.27
2022-11-23T08:13:17.434Z,1.20
2022-11-23T08:15:48.769Z,1.20
2022-11-23T08:18:19.606Z,1.30
2022-11-23T08:20:47.016Z,1.48
2022-11-23T08:23:14.445Z,1.45
2022-11-23T08:25:41.953Z,1.42
2022-11-23T08:28:09.722Z,1.20
2022-11-23T08:30:37.619Z,1.20
2022-11-23T08:33:06.862Z,1.38
2022-11-23T08:35:41.387Z,1.38
2022-11-23T08:38:10.275Z,1.40
2022-11-23T08:40:38.583Z,1.10
2022-11-23T08:43:06.416Z,1.52
2022-11-23T08:45:33.927Z,1.02
2022-11-23T08:48:02.684Z,1.00
2022-11-23T08:50:30.732Z,0.80
2022-11-23T08:52:59.947Z,0.90
2022-11-23T08:55:28.979Z,0.98
2022-11-23T08:57:57.642Z,0.60
2022-11-23T09:00:26.255Z,1.00
2022-11-23T09:02:54.178Z,0.80
2022-11-23T09:05:21.827Z,1.00
2022-11-23T09:07:49.260Z,0.95
2022-11-23T09:10:19.048Z,0.82
2022-11-23T09:12:49.822Z,1.52
2022-11-23T09:15:17.557Z,1.60
2022-11-23T09:17:45.056Z,1.45
2022-11-23T09:20:13.021Z,0.80
2022-11-23T09:22:40.403Z,0.90
2022-11-23T09:25:08.826Z,0.82
2022-11-23T09:27:36.518Z,1.00
2022-11-23T09:30:05.588Z,0.75
2022-11-23T09:32:33.060Z,0.80
2022-11-23T09:35:00.467Z,0.90
2022-11-23T09:37:27.843Z,0.60
2022-11-23T09:39:55.258Z,0.85
2022-11-23T09:42:46.800Z,0.70
2022-11-23T09:45:49.462Z,0.60
2022-11-23T09:48:34.504Z,0.60
2022-11-23T09:51:09.949Z,1.10
2022-11-23T09:54:00.490Z,0.90
2022-11-23T09:56:39.604Z,0.60
2022-11-23T09:59:21.355Z,0.80
2022-11-23T10:01:48.847Z,1.00
2022-11-23T10:04:19.308Z,1.13
2022-11-23T10:06:55.130Z,1.00
2022-11-23T10:09:25.505Z,0.90
2022-11-23T10:12:16.982Z,1.02
2022-11-23T10:15:09.754Z,0.75
2022-11-23T10:17:58.703Z,1.00
2022-11-23T10:20:52.505Z,1.00
2022-11-23T10:23:52.525Z,0.93
2022-11-23T10:26:41.421Z,1.30
2022-11-23T10:29:25.439Z,1.10
2022-11-23T10:31:56.997Z,0.80
2022-11-23T10:34:46.594Z,1.08
2022-11-23T10:37:15.946Z,0.88
2022-11-23T10:39:43.675Z,0.73
2022-11-23T10:42:29.753Z,1.23
2022-11-23T10:44:58.777Z,0.65
2022-11-23T10:47:48.845Z,0.57
2022-11-23T10:50:24.471Z,0.73
2022-11-23T10:52:57.140Z,1.00
2022-11-23T10:55:28.686Z,0.90
2022-11-23T10:57:56.294Z,0.52
2022-11-23T11:00:30.873Z,0.80
2022-11-23T11:02:59.787Z,1.20
2022-11-23T11:08:34.607Z,0.88
2022-11-23T11:11:21.035Z,0.98
2022-11-23T11:13:49.729Z,1.27
2022-11-23T11:16:22.080Z,1.05
2022-11-23T11:18:49.484Z,1.17
2022-11-23T11:21:23.027Z,1.15
2022-11-23T11:24:02.714Z,0.73
2022-11-23T11:26:32.457Z,1.10
2022-11-23T11:29:10.006Z,1.30
2022-11-23T11:31:49.233Z,1.08
2022-11-23T11:34:32.834Z,1.45
2022-11-23T11:37:02.808Z,1.35
2022-11-23T11:39:42.225Z,1.65
2022-11-23T11:42:34.769Z,1.25
2022-11-23T11:45:05.070Z,1.95
2022-11-23T11:47:39.614Z,1.50
2022-11-23T11:50:31.653Z,1.30
2022-11-23T11:53:04.838Z,1.45
2022-11-23T11:55:57.410Z,1.08
2022-11-23T11:58:26.345Z,1.88
2022-11-23T12:01:17.926Z,1.50
2022-11-23T12:03:55.344Z,1.27
2022-11-23T12:06:36.238Z,1.40
2022-11-23T12:09:07.434Z,2.17
2022-11-23T12:11:34.835Z,2.28
2022-11-23T12:14:04.978Z,1.50
2022-11-23T12:17:16.974Z,1.50
2022-11-23T12:20:22.401Z,1.92
2022-11-23T12:23:04.707Z,2.10
2022-11-23T12:25:38.944Z,2.67
2022-11-23T12:28:35.591Z,2.55
2022-11-23T12:31:21.075Z,2.33
2022-11-23T12:34:16.403Z,2.92
2022-11-23T12:37:02.538Z,3.80
2022-11-23T12:39:41.981Z,2.45
2022-11-23T12:42:21.524Z,1.90
2022-11-23T12:45:01.044Z,3.47
2022-11-23T12:47:47.165Z,2.75
2022-11-23T12:50:14.633Z,2.58
2022-11-23T12:53:15.813Z,2.33
2022-11-23T12:58:20.667Z,2.28
2022-11-23T13:01:01.059Z,3.10
2022-11-23T13:04:04.987Z,2.28
2022-11-23T13:07:28.525Z,2.65
2022-11-23T13:09:48.371Z,4.47
2022-11-23T13:12:45.947Z,2.25
2022-11-23T13:15:31.895Z,5.10
2022-11-23T13:18:22.312Z,3.22
2022-11-23T13:21:15.738Z,2.75
2022-11-23T13:23:43.295Z,2.13
2022-11-23T13:26:16.843Z,2.55
2022-11-23T13:28:46.233Z,2.40
2022-11-23T13:31:16.925Z,2.88
2022-11-23T13:33:49.568Z,2.70
2022-11-23T13:37:04.409Z,3.38
2022-11-23T13:39:48.048Z,2.15
2022-11-23T13:42:15.628Z,2.17
2022-11-23T13:44:43.133Z,1.95
2022-11-23T13:47:10.473Z,1.70
2022-11-23T13:49:43.269Z,2.80
2022-11-23T13:52:26.245Z,2.15
2022-11-23T13:55:11.842Z,2.55
2022-11-23T13:57:43.849Z,2.00
2022-11-23T14:00:45.584Z,1.70
2022-11-23T14:03:48.624Z,1.98
2022-11-23T14:06:33.980Z,2.25
2022-11-23T14:09:12.913Z,1.90
2022-11-23T14:11:58.611Z,2.05
2022-11-23T14:14:43.749Z,2.33
2022-11-23T14:17:29.733Z,2.03
2022-11-23T14:20:06.284Z,2.40
2022-11-23T14:22:47.961Z,3.28
2022-11-23T14:25:27.234Z,2.15
2022-11-23T14:28:09.428Z,3.22
2022-11-23T14:31:08.632Z,1.70
2022-11-23T14:33:48.016Z,2.22
2022-11-23T14:36:29.276Z,3.17
2022-11-23T14:39:28.031Z,1.75
2022-11-23T14:42:01.247Z,1.75
2022-11-23T14:44:34.178Z,2.08
2022-11-23T14:47:07.873Z,2.10
2022-11-23T14:49:36.745Z,2.50
2022-11-23T14:52:05.092Z,2.90
2022-11-23T14:54:33.050Z,2.15
2022-11-23T14:57:04.041Z,3.78
2022-11-23T14:59:37.894Z,3.47
2022-11-23T15:02:15.464Z,2.45
2022-11-23T15:05:00.762Z,2.88
2022-11-23T15:07:39.378Z,1.30
2022-11-23T15:10:26.468Z,2.10
2022-11-23T15:12:53.874Z,2.38
2022-11-23T15:15:21.317Z,2.17
2022-11-23T15:17:57.038Z,2.50
2022-11-23T15:20:29.971Z,2.58
2022-11-23T15:27:30.383Z,1.80
2022-11-23T15:30:00.462Z,3.35
2022-11-23T15:32:34.320Z,1.80
2022-11-23T15:35:06.971Z,2.00
2022-11-23T15:37:46.117Z,1.90
2022-11-23T15:40:15.777Z,2.13
2022-11-23T15:42:45.219Z,2.08
2022-11-23T15:45:46.655Z,1.38
2022-11-23T15:48:26.796Z,1.77
2022-11-23T15:50:56.675Z,2.13
2022-11-23T15:53:33.331Z,3.08
2022-11-23T15:56:04.511Z,2.05
2022-11-23T15:58:33.820Z,2.85
2022-11-23T16:01:07.776Z,1.60
2022-11-23T16:03:41.529Z,1.85
2022-11-23T16:06:16.112Z,2.08
2022-11-23T16:08:43.512Z,1.80
2022-11-23T16:11:34.998Z,2.15
2022-11-23T16:14:12.354Z,1.95
2022-11-23T16:16:45.216Z,2.30
2022-11-23T16:19:33.735Z,2.20
2022-11-23T16:22:05.517Z,1.58
2022-11-23T16:24:35.568Z,1.92
2022-11-23T16:27:13.526Z,2.05
2022-11-23T16:29:41.437Z,1.65
2022-11-23T16:32:27.474Z,1.38
2022-11-23T16:34:55.956Z,1.95
2022-11-23T16:37:23.428Z,1.67
2022-11-23T16:39:50.861Z,2.30
2022-11-23T16:42:18.424Z,2.38
2022-11-23T16:44:46.025Z,1.92
2022-11-23T16:47:25.053Z,2.20
2022-11-23T16:49:53.387Z,2.67
2022-11-23T16:52:22.835Z,2.10
2022-11-23T16:54:50.992Z,2.65
2022-11-23T16:57:30.868Z,1.95
2022-11-23T17:00:01.728Z,2.53
2022-11-23T17:02:29.335Z,2.17
2022-11-23T17:04:56.846Z,2.70
2022-11-23T17:07:24.395Z,3.78
2022-11-23T17:09:51.939Z,2.20
2022-11-23T17:12:20.575Z,3.33
2022-11-23T17:14:49.661Z,2.40
2022-11-23T17:17:22.219Z,3.72
2022-11-23T17:19:50.313Z,2.88
2022-11-23T17:22:20.453Z,3.05
2022-11-23T17:24:49.492Z,2.88
2022-11-23T17:27:23.245Z,2.85
2022-11-23T17:29:59.775Z,4.15
2022-11-23T17:32:27.985Z,2.88
2022-11-23T17:34:55.515Z,4.20
2022-11-23T17:37:24.422Z,3.83
2022-11-23T17:39:52.191Z,3.15
2022-11-23T17:42:19.612Z,2.85
2022-11-23T17:44:46.994Z,2.45
2022-11-23T17:47:28.825Z,3.50
2022-11-23T17:49:57.510Z,3.47
2022-11-23T17:52:25.414Z,2.45
2022-11-23T17:59:27.263Z,2.80
2022-11-23T18:01:54.651Z,3.03
2022-11-23T18:04:22.183Z,2.95
2022-11-23T18:06:49.529Z,4.32
2022-11-23T18:09:16.987Z,3.05
2022-11-23T18:11:44.422Z,3.25
2022-11-23T18:14:11.797Z,3.47
2022-11-23T18:16:39.497Z,3.85
2022-11-23T18:19:07.219Z,4.18
2022-11-23T18:21:34.596Z,3.08
2022-11-23T18:24:04.710Z,3.45
2022-11-23T18:26:32.659Z,2.53
2022-11-23T18:29:00.168Z,2.58
2022-11-23T18:31:28.066Z,2.97
2022-11-23T18:33:55.800Z,2.67
2022-11-23T18:36:23.513Z,4.28
2022-11-23T18:38:51.011Z,3.15
2022-11-23T18:41:18.718Z,3.35
2022-11-23T18:43:46.283Z,3.05
2022-11-23T18:46:21.387Z,3.33
2022-11-23T18:48:50.352Z,3.95
2022-11-23T18:51:18.631Z,3.58
2022-11-23T18:53:47.828Z,4.03
2022-11-23T18:56:15.526Z,3.35
2022-11-23T18:58:44.438Z,3.42
2022-11-23T19:01:20.079Z,3.10
2022-11-23T19:03:49.937Z,4.32
2022-11-23T19:06:19.795Z,3.63
2022-11-23T19:08:50.772Z,3.75
2022-11-23T19:11:27.409Z,3.75
2022-11-23T19:13:57.251Z,3.75
2022-11-23T19:16:27.461Z,4.93
2022-11-23T19:19:06.893Z,6.53
2022-11-23T19:21:35.851Z,5.35
2022-11-23T19:24:04.047Z,3.55
2022-11-23T19:26:31.759Z,4.10
2022-11-23T19:28:59.574Z,4.47
2022-11-23T19:31:29.699Z,4.95
2022-11-23T19:34:00.807Z,6.33
2022-11-23T19:38:57.953Z,4.50
2022-11-23T19:41:30.211Z,5.22
2022-11-23T19:43:59.610Z,4.93
2022-11-23T19:46:28.414Z,4.70
2022-11-23T19:48:57.302Z,3.25
2022-11-23T19:51:25.938Z,4.00
2022-11-23T19:53:56.968Z,4.53
2022-11-23T19:58:54.729Z,3.42
2022-11-23T20:01:24.293Z,3.72
2022-11-23T20:03:53.621Z,2.85
2022-11-23T20:06:26.812Z,2.75
2022-11-23T20:09:03.117Z,3.70
2022-11-23T20:11:33.369Z,2.80
2022-11-23T20:14:01.363Z,2.58
2022-11-23T20:16:31.862Z,3.30
2022-11-23T20:19:02.370Z,3.50
2022-11-23T20:21:30.766Z,3.15
2022-11-23T20:24:04.672Z,3.00
2022-11-23T20:26:34.576Z,3.17
2022-11-23T20:29:02.344Z,2.78
2022-11-23T20:31:31.519Z,4.40
2022-11-23T20:33:59.867Z,3.63
2022-11-23T20:36:30.983Z,2.97
2022-11-23T20:41:31.176Z,3.50
2022-11-23T20:44:00.970Z,2.53
2022-11-23T20:49:17.722Z,4.03
2022-11-23T20:51:45.106Z,2.97
2022-11-23T20:54:12.763Z,3.70
2022-11-23T20:56:40.171Z,2.70
2022-11-23T20:59:07.572Z,4.22
2022-11-23T21:01:35.110Z,2.92
2022-11-23T21:04:02.589Z,3.47
2022-11-23T21:06:31.456Z,2.75
2022-11-23T21:09:02.110Z,3.17
2022-11-23T21:11:48.760Z,3.30
2022-11-23T21:14:19.514Z,3.15
2022-11-23T21:16:58.419Z,5.13
2022-11-23T21:19:29.925Z,2.53
2022-11-23T21:21:58.809Z,3.17
2022-11-23T21:24:26.209Z,2.45
2022-11-23T21:26:53.734Z,2.85
2022-11-23T21:29:21.171Z,3.95
2022-11-23T21:31:49.137Z,5.50
2022-11-23T21:34:22.603Z,4.30
2022-11-23T21:36:50.739Z,3.00
2022-11-23T21:39:19.086Z,2.90
2022-11-23T21:41:47.494Z,2.47
2022-11-23T21:44:14.987Z,3.78
2022-11-23T21:46:42.527Z,2.80
2022-11-23T21:49:10.626Z,2.75
2022-11-23T21:51:38.666Z,2.70
2022-11-23T21:54:09.862Z,2.95
2022-11-23T21:59:05.462Z,2.55
2022-11-23T22:01:34.508Z,2.75
2022-11-23T22:04:09.011Z,4.03
2022-11-23T22:06:38.258Z,3.67
2022-11-23T22:09:09.326Z,3.30
2022-11-23T22:11:41.131Z,2.72
2022-11-23T22:14:16.412Z,3.05
2022-11-23T22:16:45.737Z,3.38
2022-11-23T22:19:14.969Z,2.38
2022-11-23T22:21:44.380Z,2.85
2022-11-23T22:24:14.310Z,3.35
2022-11-23T22:26:42.952Z,3.13
2022-11-23T22:29:11.231Z,2.88
2022-11-23T22:31:39.010Z,2.65
2022-11-23T22:34:10.161Z,3.40
2022-11-23T22:39:06.567Z,5.35
2022-11-23T22:41:37.300Z,3.28
2022-11-23T22:49:04.924Z,2.35
2022-11-23T22:51:32.841Z,3.10
2022-11-23T22:54:01.315Z,2.58
2022-11-23T22:56:30.511Z,3.58
2022-11-23T22:58:58.329Z,3.25
2022-11-23T23:01:28.763Z,2.85
2022-11-23T23:03:58.315Z,2.78
2022-11-23T23:06:28.521Z,2.95
2022-11-23T23:08:58.087Z,3.03
2022-11-23T23:11:27.773Z,3.47
2022-11-23T23:13:56.117Z,6.65
2022-11-23T23:16:25.487Z,3.58
2022-11-23T23:18:56.537Z,2.55
2022-11-23T23:21:25.094Z,3.45
2022-11-23T23:23:55.155Z,3.10
2022-11-23T23:26:25.680Z,2.25
2022-11-23T23:28:57.438Z,3.83
2022-11-23T23:31:25.356Z,2.60
2022-11-23T23:33:53.796Z,2.95
2022-11-23T23:36:22.822Z,2.60
2022-11-23T23:38:51.049Z,3.03
2022-11-23T23:41:19.025Z,3.03
2022-11-23T23:43:48.245Z,2.78
2022-11-23T23:46:16.545Z,2.75
2022-11-23T23:48:44.146Z,3.15
2022-11-23T23:51:15.104Z,3.17
2022-11-23T23:53:43.964Z,3.05
2022-11-23T23:56:26.422Z,2.85
2022-11-23T23:58:56.821Z,2.72
